sensor_id;sensor_type;location;lat;lon;timestamp;pressure;altitude;pressure_sealevel;temperature;humidity
33422;BME280;19763;55.798;37.782;2023-09-19T00:00:23;39131.81;;;-145.63;56.35
33422;BME280;19763;55.798;37.782;2023-09-19T00:02:56;39341.06;;;-145.63;56.51
33422;BME280;19763;55.798;37.782;2023-09-19T00:05:26;39317.59;;;-145.63;56.03
33422;BME280;19763;55.798;37.782;2023-09-19T00:07:55;39333.25;;;-145.63;56.43
33422;BME280;19763;55.798;37.782;2023-09-19T00:10:25;39321.50;;;-145.63;56.75
33422;BME280;19763;55.798;37.782;2023-09-19T00:12:56;39327.38;;;-145.63;56.67
33422;BME280;19763;55.798;37.782;2023-09-19T00:15:25;39378.22;;;-145.63;56.60
33422;BME280;19763;55.798;37.782;2023-09-19T00:17:57;39344.97;;;-145.63;55.95
33422;BME280;19763;55.798;37.782;2023-09-19T00:20:23;39294.13;;;-145.63;56.31
33422;BME280;19763;55.798;37.782;2023-09-19T00:22:50;39284.34;;;-145.63;56.42
33422;BME280;19763;55.798;37.782;2023-09-19T00:25:17;39350.84;;;-145.63;55.72
33422;BME280;19763;55.798;37.782;2023-09-19T00:27:45;39356.72;;;-145.63;55.88
33422;BME280;19763;55.798;37.782;2023-09-19T00:30:16;39358.66;;;-145.63;56.00
33422;BME280;19763;55.798;37.782;2023-09-19T00:32:50;39337.16;;;-145.63;56.14
33422;BME280;19763;55.798;37.782;2023-09-19T00:35:20;39360.63;;;-145.63;56.34
33422;BME280;19763;55.798;37.782;2023-09-19T00:37:47;39346.94;;;-145.63;56.42
33422;BME280;19763;55.798;37.782;2023-09-19T00:40:12;39354.75;;;-145.63;56.45
33422;BME280;19763;55.798;37.782;2023-09-19T00:42:39;39329.34;;;-145.63;56.32
33422;BME280;19763;55.798;37.782;2023-09-19T00:45:07;39356.72;;;-145.63;56.24
33422;BME280;19763;55.798;37.782;2023-09-19T00:47:36;39329.34;;;-145.63;56.19
33422;BME280;19763;55.798;37.782;2023-09-19T00:50:04;39352.81;;;-145.63;56.16
33422;BME280;19763;55.798;37.782;2023-09-19T00:52:33;39337.16;;;-145.63;56.30
33422;BME280;19763;55.798;37.782;2023-09-19T00:55:02;39325.41;;;-145.63;56.13
33422;BME280;19763;55.798;37.782;2023-09-19T00:57:29;39370.41;;;-145.63;56.13
33422;BME280;19763;55.798;37.782;2023-09-19T01:00:00;39354.75;;;-145.63;56.17
33422;BME280;19763;55.798;37.782;2023-09-19T01:02:32;39352.81;;;-145.63;55.97
33422;BME280;19763;55.798;37.782;2023-09-19T01:04:58;39364.53;;;-145.63;55.91
33422;BME280;19763;55.798;37.782;2023-09-19T01:07:25;39364.53;;;-145.63;56.52
33422;BME280;19763;55.798;37.782;2023-09-19T01:09:51;39376.28;;;-145.63;56.59
33422;BME280;19763;55.798;37.782;2023-09-19T01:12:24;39323.47;;;-145.63;56.61
33422;BME280;19763;55.798;37.782;2023-09-19T01:15:01;39343.03;;;-145.63;56.79
33422;BME280;19763;55.798;37.782;2023-09-19T01:17:34;39401.69;;;-145.63;56.77
33422;BME280;19763;55.798;37.782;2023-09-19T01:20:30;39339.13;;;-145.63;56.28
33422;BME280;19763;55.798;37.782;2023-09-19T01:23:13;39405.59;;;-145.63;56.67
33422;BME280;19763;55.798;37.782;2023-09-19T01:28:21;39360.63;;;-145.63;56.32
33422;BME280;19763;55.798;37.782;2023-09-19T01:30:57;39389.97;;;-145.63;56.26
33422;BME280;19763;55.798;37.782;2023-09-19T01:33:26;39356.72;;;-145.63;56.36
33422;BME280;19763;55.798;37.782;2023-09-19T01:35:52;39364.53;;;-145.63;56.24
33422;BME280;19763;55.798;37.782;2023-09-19T01:38:23;39348.88;;;-145.63;56.04
33422;BME280;19763;55.798;37.782;2023-09-19T01:41:01;39348.88;;;-145.63;56.30
33422;BME280;19763;55.798;37.782;2023-09-19T01:43:38;39409.53;;;-145.63;56.55
33422;BME280;19763;55.798;37.782;2023-09-19T01:48:54;39360.63;;;-145.63;56.40
33422;BME280;19763;55.798;37.782;2023-09-19T01:51:45;39450.59;;;-145.63;56.29
33422;BME280;19763;55.798;37.782;2023-09-19T01:54:12;39337.16;;;-145.63;56.41
33422;BME280;19763;55.798;37.782;2023-09-19T01:59:30;39346.94;;;-145.63;55.72
33422;BME280;19763;55.798;37.782;2023-09-19T02:01:59;39380.19;;;-145.63;55.69
33422;BME280;19763;55.798;37.782;2023-09-19T02:04:26;39346.94;;;-145.63;55.89
33422;BME280;19763;55.798;37.782;2023-09-19T02:06:53;39344.97;;;-145.63;55.81
33422;BME280;19763;55.798;37.782;2023-09-19T02:09:19;39133.75;;;-145.63;55.89
33422;BME280;19763;55.798;37.782;2023-09-19T02:11:44;39354.75;;;-145.63;55.88
33422;BME280;19763;55.798;37.782;2023-09-19T02:14:10;39307.81;;;-145.63;56.24
33422;BME280;19763;55.798;37.782;2023-09-19T02:16:36;39343.03;;;-145.63;56.23
33422;BME280;19763;55.798;37.782;2023-09-19T02:19:02;39323.47;;;-145.63;56.18
33422;BME280;19763;55.798;37.782;2023-09-19T02:21:31;39368.44;;;-145.63;55.83
33422;BME280;19763;55.798;37.782;2023-09-19T02:23:58;39380.19;;;-145.63;56.05
33422;BME280;19763;55.798;37.782;2023-09-19T02:26:24;39360.63;;;-145.63;55.82
33422;BME280;19763;55.798;37.782;2023-09-19T02:28:50;39360.63;;;-145.63;56.15
33422;BME280;19763;55.798;37.782;2023-09-19T02:31:16;39352.81;;;-145.63;55.80
33422;BME280;19763;55.798;37.782;2023-09-19T02:33:42;39325.41;;;-145.63;55.59
33422;BME280;19763;55.798;37.782;2023-09-19T02:36:09;39352.81;;;-145.63;55.81
33422;BME280;19763;55.798;37.782;2023-09-19T02:38:35;39341.06;;;-145.63;56.01
33422;BME280;19763;55.798;37.782;2023-09-19T02:41:00;39344.97;;;-145.63;55.90
33422;BME280;19763;55.798;37.782;2023-09-19T02:43:27;39403.66;;;-145.63;55.94
33422;BME280;19763;55.798;37.782;2023-09-19T02:45:53;39462.31;;;-145.63;56.03
33422;BME280;19763;55.798;37.782;2023-09-19T02:48:19;39354.75;;;-145.63;55.79
33422;BME280;19763;55.798;37.782;2023-09-19T02:50:45;39366.50;;;-145.63;55.80
33422;BME280;19763;55.798;37.782;2023-09-19T02:53:11;39362.59;;;-145.63;56.09
33422;BME280;19763;55.798;37.782;2023-09-19T02:55:40;39388.00;;;-145.63;56.10
33422;BME280;19763;55.798;37.782;2023-09-19T02:58:07;39364.53;;;-145.63;56.20
33422;BME280;19763;55.798;37.782;2023-09-19T03:00:41;39376.28;;;-145.63;55.77
33422;BME280;19763;55.798;37.782;2023-09-19T03:03:07;39366.50;;;-145.63;55.93
33422;BME280;19763;55.798;37.782;2023-09-19T03:05:34;39364.53;;;-145.63;55.89
33422;BME280;19763;55.798;37.782;2023-09-19T03:08:00;39229.59;;;-145.63;56.01
33422;BME280;19763;55.798;37.782;2023-09-19T03:10:29;39364.53;;;-145.63;56.25
33422;BME280;19763;55.798;37.782;2023-09-19T03:12:55;39376.28;;;-145.63;56.25
33422;BME280;19763;55.798;37.782;2023-09-19T03:15:21;39346.94;;;-145.63;56.13
33422;BME280;19763;55.798;37.782;2023-09-19T03:17:48;39352.81;;;-145.63;56.07
33422;BME280;19763;55.798;37.782;2023-09-19T03:20:15;39391.91;;;-145.63;56.37
33422;BME280;19763;55.798;37.782;2023-09-19T03:22:43;39290.22;;;-145.63;56.56
33422;BME280;19763;55.798;37.782;2023-09-19T03:25:09;39370.41;;;-145.63;56.14
33422;BME280;19763;55.798;37.782;2023-09-19T03:27:40;39362.59;;;-145.63;56.30
33422;BME280;19763;55.798;37.782;2023-09-19T03:30:06;39348.88;;;-145.63;56.50
33422;BME280;19763;55.798;37.782;2023-09-19T03:32:37;39341.06;;;-145.63;56.20
33422;BME280;19763;55.798;37.782;2023-09-19T03:35:08;39344.97;;;-145.63;55.63
33422;BME280;19763;55.798;37.782;2023-09-19T03:37:40;39341.06;;;-145.63;55.51
33422;BME280;19763;55.798;37.782;2023-09-19T03:40:08;39348.88;;;-145.63;55.54
33422;BME280;19763;55.798;37.782;2023-09-19T03:42:34;39354.75;;;-145.63;55.38
33422;BME280;19763;55.798;37.782;2023-09-19T03:45:02;39350.84;;;-145.63;55.32
33422;BME280;19763;55.798;37.782;2023-09-19T03:47:31;39348.88;;;-145.63;55.41
33422;BME280;19763;55.798;37.782;2023-09-19T03:49:56;39129.84;;;-145.63;55.19
33422;BME280;19763;55.798;37.782;2023-09-19T03:52:22;39348.88;;;-145.63;55.28
33422;BME280;19763;55.798;37.782;2023-09-19T03:54:47;39364.53;;;-145.63;55.57
33422;BME280;19763;55.798;37.782;2023-09-19T03:57:14;39364.53;;;-145.63;55.63
33422;BME280;19763;55.798;37.782;2023-09-19T03:59:42;39344.97;;;-145.63;55.62
33422;BME280;19763;55.798;37.782;2023-09-19T04:02:11;39329.34;;;-145.63;55.80
33422;BME280;19763;55.798;37.782;2023-09-19T04:04:51;39348.88;;;-145.63;56.11
33422;BME280;19763;55.798;37.782;2023-09-19T04:07:17;39386.06;;;-145.63;56.01
33422;BME280;19763;55.798;37.782;2023-09-19T04:09:44;39356.72;;;-145.63;55.53
33422;BME280;19763;55.798;37.782;2023-09-19T04:12:11;39348.88;;;-145.63;55.28
33422;BME280;19763;55.798;37.782;2023-09-19T04:14:37;39360.63;;;-145.63;55.49
33422;BME280;19763;55.798;37.782;2023-09-19T04:17:04;39311.72;;;-145.63;55.23
33422;BME280;19763;55.798;37.782;2023-09-19T04:19:30;39360.63;;;-145.63;55.59
33422;BME280;19763;55.798;37.782;2023-09-19T04:21:56;39344.97;;;-145.63;55.86
33422;BME280;19763;55.798;37.782;2023-09-19T04:24:22;39352.81;;;-145.63;55.63
33422;BME280;19763;55.798;37.782;2023-09-19T04:26:47;39341.06;;;-145.63;55.68
33422;BME280;19763;55.798;37.782;2023-09-19T04:29:13;39376.28;;;-145.63;55.74
33422;BME280;19763;55.798;37.782;2023-09-19T04:31:39;39303.91;;;-145.63;56.59
33422;BME280;19763;55.798;37.782;2023-09-19T04:34:06;39180.69;;;-145.63;57.22
33422;BME280;19763;55.798;37.782;2023-09-19T04:36:32;39270.66;;;-145.63;56.93
33422;BME280;19763;55.798;37.782;2023-09-19T04:38:57;39315.66;;;-145.63;56.61
33422;BME280;19763;55.798;37.782;2023-09-19T04:41:23;39356.72;;;-145.63;57.09
33422;BME280;19763;55.798;37.782;2023-09-19T04:43:49;39350.84;;;-145.63;56.79
33422;BME280;19763;55.798;37.782;2023-09-19T04:46:16;39393.88;;;-145.63;56.75
33422;BME280;19763;55.798;37.782;2023-09-19T04:48:43;39350.84;;;-145.63;56.70
33422;BME280;19763;55.798;37.782;2023-09-19T04:51:09;39333.25;;;-145.63;56.55
33422;BME280;19763;55.798;37.782;2023-09-19T04:53:36;39343.03;;;-145.63;56.05
33422;BME280;19763;55.798;37.782;2023-09-19T04:56:01;39341.06;;;-145.63;56.01
33422;BME280;19763;55.798;37.782;2023-09-19T04:58:30;39344.97;;;-145.63;55.99
33422;BME280;19763;55.798;37.782;2023-09-19T05:00:56;39294.13;;;-145.63;56.00
33422;BME280;19763;55.798;37.782;2023-09-19T05:03:22;39341.06;;;-145.63;56.17
33422;BME280;19763;55.798;37.782;2023-09-19T05:05:48;39341.06;;;-145.63;55.70
33422;BME280;19763;55.798;37.782;2023-09-19T05:08:14;39364.53;;;-145.63;56.04
33422;BME280;19763;55.798;37.782;2023-09-19T05:10:40;39305.88;;;-145.63;56.01
33422;BME280;19763;55.798;37.782;2023-09-19T05:13:06;39352.81;;;-145.63;56.59
33422;BME280;19763;55.798;37.782;2023-09-19T05:15:36;39341.06;;;-145.63;56.80
33422;BME280;19763;55.798;37.782;2023-09-19T05:18:02;39327.38;;;-145.63;56.16
33422;BME280;19763;55.798;37.782;2023-09-19T05:20:28;39319.56;;;-145.63;56.16
33422;BME280;19763;55.798;37.782;2023-09-19T05:23:05;39327.38;;;-145.63;56.05
33422;BME280;19763;55.798;37.782;2023-09-19T05:25:34;39337.16;;;-145.63;56.63
33422;BME280;19763;55.798;37.782;2023-09-19T05:28:08;39370.41;;;-145.63;56.41
33422;BME280;19763;55.798;37.782;2023-09-19T05:30:35;39341.06;;;-145.63;55.97
33422;BME280;19763;55.798;37.782;2023-09-19T05:33:08;39341.06;;;-145.63;56.48
33422;BME280;19763;55.798;37.782;2023-09-19T05:35:35;39335.19;;;-145.63;56.76
33422;BME280;19763;55.798;37.782;2023-09-19T05:38:05;39350.84;;;-145.63;56.78
33422;BME280;19763;55.798;37.782;2023-09-19T05:40:34;39311.72;;;-145.63;56.83
33422;BME280;19763;55.798;37.782;2023-09-19T05:43:01;39305.88;;;-145.63;56.16
33422;BME280;19763;55.798;37.782;2023-09-19T05:45:27;39294.13;;;-145.63;56.16
33422;BME280;19763;55.798;37.782;2023-09-19T05:47:53;39315.66;;;-145.63;55.70
33422;BME280;19763;55.798;37.782;2023-09-19T05:50:29;39311.72;;;-145.63;55.72
33422;BME280;19763;55.798;37.782;2023-09-19T05:52:55;39292.19;;;-145.63;55.84
33422;BME280;19763;55.798;37.782;2023-09-19T05:55:23;39305.88;;;-145.63;55.96
33422;BME280;19763;55.798;37.782;2023-09-19T05:57:51;39294.13;;;-145.63;55.76
33422;BME280;19763;55.798;37.782;2023-09-19T06:00:26;39290.22;;;-145.63;55.59
33422;BME280;19763;55.798;37.782;2023-09-19T06:02:59;39278.47;;;-145.63;55.70
33422;BME280;19763;55.798;37.782;2023-09-19T06:05:26;39255.00;;;-145.63;55.79
33422;BME280;19763;55.798;37.782;2023-09-19T06:07:53;39251.09;;;-145.63;55.36
33422;BME280;19763;55.798;37.782;2023-09-19T06:10:19;39276.53;;;-145.63;55.13
33422;BME280;19763;55.798;37.782;2023-09-19T06:12:48;39276.53;;;-145.63;54.94
33422;BME280;19763;55.798;37.782;2023-09-19T06:15:15;39270.66;;;-145.63;54.90
33422;BME280;19763;55.798;37.782;2023-09-19T06:17:51;39229.59;;;-145.63;55.13
33422;BME280;19763;55.798;37.782;2023-09-19T06:20:20;39241.31;;;-145.63;54.52
33422;BME280;19763;55.798;37.782;2023-09-19T06:22:48;39253.06;;;-145.63;54.31
33422;BME280;19763;55.798;37.782;2023-09-19T06:25:15;39237.41;;;-145.63;54.59
33422;BME280;19763;55.798;37.782;2023-09-19T06:27:46;39262.84;;;-145.63;55.33
33422;BME280;19763;55.798;37.782;2023-09-19T06:30:12;39223.72;;;-145.63;54.61
33422;BME280;19763;55.798;37.782;2023-09-19T06:32:40;39204.16;;;-145.63;54.65
33422;BME280;19763;55.798;37.782;2023-09-19T06:35:05;39212.00;;;-145.63;54.41
33422;BME280;19763;55.798;37.782;2023-09-19T06:37:37;39206.13;;;-145.63;54.69
33422;BME280;19763;55.798;37.782;2023-09-19T06:42:34;39192.44;;;-145.63;52.75
33422;BME280;19763;55.798;37.782;2023-09-19T06:45:00;39192.44;;;-145.63;52.67
33422;BME280;19763;55.798;37.782;2023-09-19T06:47:26;39170.91;;;-145.63;52.27
33422;BME280;19763;55.798;37.782;2023-09-19T06:49:51;39188.53;;;-145.63;52.13
33422;BME280;19763;55.798;37.782;2023-09-19T06:52:17;39210.03;;;-145.63;52.96
33422;BME280;19763;55.798;37.782;2023-09-19T06:54:48;39192.44;;;-145.63;53.27
33422;BME280;19763;55.798;37.782;2023-09-19T06:57:16;39161.13;;;-145.63;52.70
33422;BME280;19763;55.798;37.782;2023-09-19T06:59:41;39167.00;;;-145.63;52.02
33422;BME280;19763;55.798;37.782;2023-09-19T07:02:07;39157.22;;;-145.63;52.23
33422;BME280;19763;55.798;37.782;2023-09-19T07:04:33;39180.69;;;-145.63;51.77
33422;BME280;19763;55.798;37.782;2023-09-19T07:06:59;39180.69;;;-145.63;52.00
33422;BME280;19763;55.798;37.782;2023-09-19T07:09:25;39167.00;;;-145.63;52.53
33422;BME280;19763;55.798;37.782;2023-09-19T07:11:54;39180.69;;;-145.63;52.56
33422;BME280;19763;55.798;37.782;2023-09-19T07:14:19;39147.44;;;-145.63;52.63
33422;BME280;19763;55.798;37.782;2023-09-19T07:16:45;39155.28;;;-145.63;52.54
33422;BME280;19763;55.798;37.782;2023-09-19T07:19:13;39200.25;;;-145.63;52.32
33422;BME280;19763;55.798;37.782;2023-09-19T07:21:41;39151.38;;;-145.63;52.48
33422;BME280;19763;55.798;37.782;2023-09-19T07:24:08;39137.69;;;-145.63;52.09
33422;BME280;19763;55.798;37.782;2023-09-19T07:26:34;39145.50;;;-145.63;52.13
33422;BME280;19763;55.798;37.782;2023-09-19T07:29:00;39161.13;;;-145.63;52.31
33422;BME280;19763;55.798;37.782;2023-09-19T07:31:29;39137.69;;;-145.63;52.25
33422;BME280;19763;55.798;37.782;2023-09-19T07:33:56;39159.19;;;-145.63;52.19
33422;BME280;19763;55.798;37.782;2023-09-19T07:36:21;39153.31;;;-145.63;51.92
33422;BME280;19763;55.798;37.782;2023-09-19T07:38:50;39125.94;;;-145.63;52.38
33422;BME280;19763;55.798;37.782;2023-09-19T07:41:15;39122.03;;;-145.63;52.08
33422;BME280;19763;55.798;37.782;2023-09-19T07:43:41;39133.75;;;-145.63;51.95
33422;BME280;19763;55.798;37.782;2023-09-19T07:46:07;39094.66;;;-145.63;51.59
33422;BME280;19763;55.798;37.782;2023-09-19T07:48:38;39112.25;;;-145.63;51.44
33422;BME280;19763;55.798;37.782;2023-09-19T07:51:05;39110.28;;;-145.63;51.49
33422;BME280;19763;55.798;37.782;2023-09-19T07:53:33;39120.06;;;-145.63;51.81
33422;BME280;19763;55.798;37.782;2023-09-19T07:56:06;39035.97;;;-145.63;51.60
33422;BME280;19763;55.798;37.782;2023-09-19T07:58:33;39030.13;;;-145.63;51.51
33422;BME280;19763;55.798;37.782;2023-09-19T08:01:06;39102.47;;;-145.63;50.99
33422;BME280;19763;55.798;37.782;2023-09-19T08:03:33;39118.13;;;-145.63;50.99
33422;BME280;19763;55.798;37.782;2023-09-19T08:05:59;39120.06;;;-145.63;51.38
33422;BME280;19763;55.798;37.782;2023-09-19T08:08:26;39127.91;;;-145.63;51.18
33422;BME280;19763;55.798;37.782;2023-09-19T08:10:53;39122.03;;;-145.63;50.82
33422;BME280;19763;55.798;37.782;2023-09-19T08:13:19;39118.13;;;-145.63;51.22
33422;BME280;19763;55.798;37.782;2023-09-19T08:15:46;39102.47;;;-145.63;51.39
33422;BME280;19763;55.798;37.782;2023-09-19T08:18:14;39106.38;;;-145.63;51.20
33422;BME280;19763;55.798;37.782;2023-09-19T08:20:41;39088.78;;;-145.63;51.27
33422;BME280;19763;55.798;37.782;2023-09-19T08:23:08;39100.50;;;-145.63;50.84
33422;BME280;19763;55.798;37.782;2023-09-19T08:25:34;39082.91;;;-145.63;50.83
33422;BME280;19763;55.798;37.782;2023-09-19T08:27:59;39086.81;;;-145.63;50.79
33422;BME280;19763;55.798;37.782;2023-09-19T08:30:29;39061.41;;;-145.63;51.12
33422;BME280;19763;55.798;37.782;2023-09-19T08:33:02;39100.50;;;-145.63;50.92
33422;BME280;19763;55.798;37.782;2023-09-19T08:35:30;39116.16;;;-145.63;51.38
33422;BME280;19763;55.798;37.782;2023-09-19T08:37:56;39090.75;;;-145.63;51.26
33422;BME280;19763;55.798;37.782;2023-09-19T08:40:22;39127.91;;;-145.63;51.04
33422;BME280;19763;55.798;37.782;2023-09-19T08:42:51;39092.69;;;-145.63;50.93
33422;BME280;19763;55.798;37.782;2023-09-19T08:45:22;39135.72;;;-145.63;51.18
33422;BME280;19763;55.798;37.782;2023-09-19T08:47:56;39112.25;;;-145.63;51.20
33422;BME280;19763;55.798;37.782;2023-09-19T08:50:29;39123.97;;;-145.63;51.22
33422;BME280;19763;55.798;37.782;2023-09-19T08:52:56;39151.38;;;-145.63;51.52
33422;BME280;19763;55.798;37.782;2023-09-19T08:55:29;39118.13;;;-145.63;51.47
33422;BME280;19763;55.798;37.782;2023-09-19T08:58:08;39086.81;;;-145.63;51.16
33422;BME280;19763;55.798;37.782;2023-09-19T09:00:36;39118.13;;;-145.63;51.25
33422;BME280;19763;55.798;37.782;2023-09-19T09:03:03;39122.03;;;-145.63;51.51
33422;BME280;19763;55.798;37.782;2023-09-19T09:05:32;39122.03;;;-145.63;51.27
33422;BME280;19763;55.798;37.782;2023-09-19T09:07:58;39084.88;;;-145.63;51.30
33422;BME280;19763;55.798;37.782;2023-09-19T09:10:25;39100.50;;;-145.63;51.68
33422;BME280;19763;55.798;37.782;2023-09-19T09:12:53;39198.31;;;-145.63;51.71
33422;BME280;19763;55.798;37.782;2023-09-19T09:15:23;39096.59;;;-145.63;51.60
33422;BME280;19763;55.798;37.782;2023-09-19T09:17:50;39096.59;;;-145.63;51.50
33422;BME280;19763;55.798;37.782;2023-09-19T09:20:19;39118.13;;;-145.63;51.72
33422;BME280;19763;55.798;37.782;2023-09-19T09:22:55;39141.59;;;-145.63;51.93
33422;BME280;19763;55.798;37.782;2023-09-19T09:25:50;39075.09;;;-145.63;52.20
33422;BME280;19763;55.798;37.782;2023-09-19T09:28:25;39100.50;;;-145.63;51.78
33422;BME280;19763;55.798;37.782;2023-09-19T09:30:52;39102.47;;;-145.63;51.79
33422;BME280;19763;55.798;37.782;2023-09-19T09:33:18;39137.69;;;-145.63;51.52
33422;BME280;19763;55.798;37.782;2023-09-19T09:35:57;39108.34;;;-145.63;51.64
33422;BME280;19763;55.798;37.782;2023-09-19T09:38:27;39073.13;;;-145.63;51.77
33422;BME280;19763;55.798;37.782;2023-09-19T09:40:55;39082.91;;;-145.63;51.45
33422;BME280;19763;55.798;37.782;2023-09-19T09:43:39;39100.50;;;-145.63;51.43
33422;BME280;19763;55.798;37.782;2023-09-19T09:46:19;39094.66;;;-145.63;51.80
33422;BME280;19763;55.798;37.782;2023-09-19T09:52:18;39082.91;;;-145.63;51.37
33422;BME280;19763;55.798;37.782;2023-09-19T09:55:04;39051.63;;;-145.63;50.96
33422;BME280;19763;55.798;37.782;2023-09-19T09:57:34;39037.94;;;-145.63;51.32
33422;BME280;19763;55.798;37.782;2023-09-19T10:00:01;39063.34;;;-145.63;51.40
33422;BME280;19763;55.798;37.782;2023-09-19T10:02:39;39082.91;;;-145.63;51.31
33422;BME280;19763;55.798;37.782;2023-09-19T10:05:15;38290.97;;;-145.63;51.21
33422;BME280;19763;55.798;37.782;2023-09-19T10:07:53;39059.44;;;-145.63;51.87
33422;BME280;19763;55.798;37.782;2023-09-19T10:10:33;39028.16;;;-145.63;51.86
33422;BME280;19763;55.798;37.782;2023-09-19T10:13:10;39045.75;;;-145.63;51.09
33422;BME280;19763;55.798;37.782;2023-09-19T10:15:39;38998.81;;;-145.63;50.67
33422;BME280;19763;55.798;37.782;2023-09-19T10:18:21;38963.63;;;-145.63;50.81
33422;BME280;19763;55.798;37.782;2023-09-19T10:20:47;38940.16;;;-145.63;50.49
33422;BME280;19763;55.798;37.782;2023-09-19T10:23:20;38977.31;;;-145.63;50.24
33422;BME280;19763;55.798;37.782;2023-09-19T10:25:49;38951.88;;;-145.63;50.00
33422;BME280;19763;55.798;37.782;2023-09-19T10:28:17;38955.81;;;-145.63;50.01
33422;BME280;19763;55.798;37.782;2023-09-19T10:30:48;38951.88;;;-145.63;50.13
33422;BME280;19763;55.798;37.782;2023-09-19T10:33:17;38953.84;;;-145.63;49.78
33422;BME280;19763;55.798;37.782;2023-09-19T10:35:46;38934.28;;;-145.63;48.92
33422;BME280;19763;55.798;37.782;2023-09-19T10:38:14;38904.97;;;-145.63;49.29
33422;BME280;19763;55.798;37.782;2023-09-19T10:40:40;38897.13;;;-145.63;49.57
33422;BME280;19763;55.798;37.782;2023-09-19T10:43:15;38859.97;;;-145.63;49.04
33422;BME280;19763;55.798;37.782;2023-09-19T10:45:45;38875.63;;;-145.63;47.92
33422;BME280;19763;55.798;37.782;2023-09-19T10:48:16;38912.78;;;-145.63;48.27
33422;BME280;19763;55.798;37.782;2023-09-19T10:53:51;38873.66;;;-145.63;48.16
33422;BME280;19763;55.798;37.782;2023-09-19T10:56:26;38856.06;;;-145.63;48.08
33422;BME280;19763;55.798;37.782;2023-09-19T10:59:11;38875.63;;;-145.63;47.95
33422;BME280;19763;55.798;37.782;2023-09-19T11:01:45;38840.44;;;-145.63;48.28
33422;BME280;19763;55.798;37.782;2023-09-19T11:04:32;38859.97;;;-145.63;47.70
33422;BME280;19763;55.798;37.782;2023-09-19T11:07:04;38834.56;;;-145.63;47.91
33422;BME280;19763;55.798;37.782;2023-09-19T11:09:53;38803.28;;;-145.63;47.32
33422;BME280;19763;55.798;37.782;2023-09-19T11:14:58;38875.63;;;-145.63;47.72
33422;BME280;19763;55.798;37.782;2023-09-19T11:30:42;38830.66;;;-145.63;47.40
33422;BME280;19763;55.798;37.782;2023-09-19T11:33:28;38805.22;;;-145.63;47.36
33422;BME280;19763;55.798;37.782;2023-09-19T11:36:14;38818.91;;;-145.63;47.40
33422;BME280;19763;55.798;37.782;2023-09-19T11:46:28;38813.03;;;-145.63;47.03
33422;BME280;19763;55.798;37.782;2023-09-19T11:48:54;38789.59;;;-145.63;47.05
33422;BME280;19763;55.798;37.782;2023-09-19T11:51:24;38783.72;;;-145.63;47.28
33422;BME280;19763;55.798;37.782;2023-09-19T11:53:55;38760.25;;;-145.63;47.03
33422;BME280;19763;55.798;37.782;2023-09-19T11:56:24;38760.25;;;-145.63;46.58
33422;BME280;19763;55.798;37.782;2023-09-19T11:58:52;38789.59;;;-145.63;46.67
33422;BME280;19763;55.798;37.782;2023-09-19T12:03:53;38815.00;;;-145.63;46.98
33422;BME280;19763;55.798;37.782;2023-09-19T12:06:20;38779.81;;;-145.63;46.91
33422;BME280;19763;55.798;37.782;2023-09-19T12:08:47;38775.91;;;-145.63;46.91
33422;BME280;19763;55.798;37.782;2023-09-19T12:11:15;38773.94;;;-145.63;46.96
33422;BME280;19763;55.798;37.782;2023-09-19T12:13:46;38832.59;;;-145.63;46.96
33422;BME280;19763;55.798;37.782;2023-09-19T12:16:17;38816.97;;;-145.63;46.69
33422;BME280;19763;55.798;37.782;2023-09-19T12:18:46;38762.22;;;-145.63;46.94
33422;BME280;19763;55.798;37.782;2023-09-19T12:21:25;38781.75;;;-145.63;46.71
33422;BME280;19763;55.798;37.782;2023-09-19T12:26:36;38854.13;;;-145.63;46.73
33422;BME280;19763;55.798;37.782;2023-09-19T12:29:03;38758.28;;;-145.63;47.03
33422;BME280;19763;55.798;37.782;2023-09-19T12:31:30;38764.16;;;-145.63;46.87
33422;BME280;19763;55.798;37.782;2023-09-19T12:34:02;38754.38;;;-145.63;47.08
33422;BME280;19763;55.798;37.782;2023-09-19T12:36:28;38766.13;;;-145.63;47.15
33422;BME280;19763;55.798;37.782;2023-09-19T12:38:57;38727.00;;;-145.63;47.08
33422;BME280;19763;55.798;37.782;2023-09-19T12:41:26;38764.16;;;-145.63;46.94
33422;BME280;19763;55.798;37.782;2023-09-19T12:43:55;38738.75;;;-145.63;46.85
33422;BME280;19763;55.798;37.782;2023-09-19T12:46:21;38736.78;;;-145.63;47.18
33422;BME280;19763;55.798;37.782;2023-09-19T12:49:17;38744.59;;;-145.63;46.75
33422;BME280;19763;55.798;37.782;2023-09-19T12:51:43;38728.97;;;-145.63;47.13
33422;BME280;19763;55.798;37.782;2023-09-19T12:54:09;38691.81;;;-145.63;47.01
33422;BME280;19763;55.798;37.782;2023-09-19T12:56:41;38742.66;;;-145.63;46.96
33422;BME280;19763;55.798;37.782;2023-09-19T12:59:14;38762.22;;;-145.63;47.20
33422;BME280;19763;55.798;37.782;2023-09-19T13:01:41;38699.63;;;-145.63;46.75
33422;BME280;19763;55.798;37.782;2023-09-19T13:04:18;38719.19;;;-145.63;46.88
33422;BME280;19763;55.798;37.782;2023-09-19T13:06:46;38697.69;;;-145.63;46.79
33422;BME280;19763;55.798;37.782;2023-09-19T13:09:12;38697.69;;;-145.63;46.82
33422;BME280;19763;55.798;37.782;2023-09-19T13:11:41;38685.94;;;-145.63;46.77
33422;BME280;19763;55.798;37.782;2023-09-19T13:14:19;38703.53;;;-145.63;46.86
33422;BME280;19763;55.798;37.782;2023-09-19T13:16:58;38699.63;;;-145.63;46.67
33422;BME280;19763;55.798;37.782;2023-09-19T13:25:09;38703.53;;;-145.63;46.50
33422;BME280;19763;55.798;37.782;2023-09-19T13:30:14;38703.53;;;-145.63;46.82
33422;BME280;19763;55.798;37.782;2023-09-19T13:32:41;38652.69;;;-145.63;46.78
33422;BME280;19763;55.798;37.782;2023-09-19T13:35:09;38629.22;;;-145.63;46.56